Time;durP1;ratioP1;P1;durP2;ratioP2;P2;SDS_P1;SDS_P2;PMS_P1;PMS_P2;Temp;Humidity;BMP_temperature;BMP_pressure;BME280_temperature;BME280_humidity;BME280_pressure;Samples;Min_cycle;Max_cycle;Signal;HPM_P1;HPM_P2
2023/03/17 00:01:15;;;;;;;24.55;11.55;;;22.70;36.70;;;;;;6098124;28;83128;-60
2023/03/17 00:04:16;;;;;;;20.92;11.85;;;22.80;36.70;;;;;;6097563;28;82851;-61
2023/03/17 00:07:16;;;;;;;19.80;11.18;;;22.80;36.60;;;;;;6098007;28;83633;-60
2023/03/17 00:10:17;;;;;;;21.23;11.77;;;22.80;36.30;;;;;;6097613;28;84019;-60
2023/03/17 00:13:17;;;;;;;21.08;11.23;;;22.80;36.10;;;;;;6098262;28;83491;-69
2023/03/17 00:16:18;;;;;;;16.48;10.75;;;22.70;36.30;;;;;;6187578;28;83912;-70
2023/03/17 00:19:19;;;;;;;18.67;10.43;;;22.80;36.30;;;;;;6106253;28;83435;-73
2023/03/17 00:22:21;;;;;;;19.33;10.27;;;22.80;37.20;;;;;;6098572;28;83350;-73
2023/03/17 00:25:22;;;;;;;19.00;10.95;;;22.80;36.60;;;;;;6183323;28;85004;-71
2023/03/17 00:28:22;;;;;;;20.42;11.43;;;22.80;36.50;;;;;;6106165;28;84765;-72
2023/03/17 00:31:23;;;;;;;20.55;11.25;;;22.80;36.30;;;;;;6187307;28;83770;-71
2023/03/17 00:34:23;;;;;;;16.83;10.18;;;22.80;36.30;;;;;;6103880;28;83405;-73
2023/03/17 00:37:24;;;;;;;26.20;10.95;;;22.80;36.50;;;;;;6097003;28;82906;-73
2023/03/17 00:40:24;;;;;;;18.05;9.73;;;22.80;36.50;;;;;;6097774;28;86128;-73
2023/03/17 00:43:25;;;;;;;18.38;10.20;;;22.80;36.60;;;;;;6101245;28;82945;-76
2023/03/17 00:46:26;;;;;;;20.10;9.98;;;22.70;36.70;;;;;;6098172;28;83295;-73
2023/03/17 00:49:27;;;;;;;19.10;10.82;;;22.70;36.50;;;;;;6097100;28;83552;-72
2023/03/17 00:52:28;;;;;;;20.48;10.93;;;22.70;36.40;;;;;;6097592;28;83221;-72
2023/03/17 00:55:28;;;;;;;20.38;11.35;;;22.70;36.50;;;;;;6088484;28;85846;-73
2023/03/17 00:58:29;;;;;;;19.38;10.80;;;22.70;36.30;;;;;;6097595;28;84175;-73
2023/03/17 01:01:29;;;;;;;17.25;10.55;;;22.70;36.50;;;;;;6194635;28;83438;-73
2023/03/17 01:04:31;;;;;;;19.08;10.43;;;22.70;36.30;;;;;;6101875;28;83927;-75
2023/03/17 01:07:31;;;;;;;19.85;10.85;;;22.70;36.20;;;;;;6193355;28;85282;-75
2023/03/17 01:10:32;;;;;;;19.08;11.15;;;22.70;36.40;;;;;;6101015;28;88247;-75
2023/03/17 01:13:33;;;;;;;19.52;10.73;;;22.70;36.40;;;;;;6097985;28;83962;-76
2023/03/17 01:16:33;;;;;;;18.35;10.43;;;22.70;36.50;;;;;;6186741;28;83713;-76
2023/03/17 01:19:34;;;;;;;20.15;11.20;;;22.70;36.90;;;;;;6092550;28;82904;-76
2023/03/17 01:22:35;;;;;;;19.30;10.88;;;22.70;36.80;;;;;;6091558;28;83834;-77
2023/03/17 01:25:37;;;;;;;19.88;10.82;;;22.70;36.90;;;;;;6097326;28;84971;-75
2023/03/17 01:28:38;;;;;;;19.38;11.35;;;22.70;36.80;;;;;;6094966;28;87478;-67
2023/03/17 01:31:38;;;;;;;15.77;10.07;;;22.70;36.60;;;;;;6096779;28;83615;-71
2023/03/17 01:34:39;;;;;;;21.13;12.13;;;22.70;36.80;;;;;;6086544;28;83945;-70
2023/03/17 01:37:40;;;;;;;21.55;12.00;;;22.70;36.80;;;;;;6095682;28;83562;-70
2023/03/17 01:40:41;;;;;;;20.75;10.80;;;22.70;36.80;;;;;;6099409;28;85942;-70
2023/03/17 01:43:42;;;;;;;16.83;10.32;;;22.60;36.80;;;;;;6196491;28;83300;-74
2023/03/17 01:46:44;;;;;;;18.00;10.85;;;22.60;36.70;;;;;;6100473;28;83940;-75
2023/03/17 01:49:44;;;;;;;17.42;9.90;;;22.60;37.10;;;;;;6100564;28;85066;-74
2023/03/17 01:52:46;;;;;;;20.13;10.98;;;22.70;36.80;;;;;;6101779;28;82935;-72
2023/03/17 01:55:47;;;;;;;22.27;11.15;;;22.60;36.90;;;;;;6100663;28;83252;-70
2023/03/17 01:58:48;;;;;;;19.52;10.45;;;22.60;36.80;;;;;;6100171;28;83352;-70
2023/03/17 02:01:48;;;;;;;20.92;10.93;;;22.60;36.60;;;;;;6151223;28;83198;-69
2023/03/17 02:04:49;;;;;;;16.90;10.95;;;22.60;36.60;;;;;;6099935;28;84097;-67
2023/03/17 02:07:49;;;;;;;18.30;10.73;;;22.60;36.60;;;;;;6096460;28;85304;-66
2023/03/17 02:10:51;;;;;;;19.38;10.07;;;22.60;36.60;;;;;;6098482;28;86032;-66
2023/03/17 02:13:52;;;;;;;20.30;10.98;;;22.60;36.90;;;;;;6098185;28;83617;-67
2023/03/17 02:16:55;;;;;;;20.83;10.68;;;22.60;36.90;;;;;;6087953;28;86114;-66
2023/03/17 02:19:55;;;;;;;17.65;10.48;;;22.60;37.00;;;;;;6098391;27;83091;-65
2023/03/17 02:22:57;;;;;;;19.92;11.23;;;22.60;36.80;;;;;;6083566;28;83864;-60
2023/03/17 02:25:57;;;;;;;18.58;10.77;;;22.60;36.90;;;;;;6084911;28;85621;-62
2023/03/17 02:28:58;;;;;;;19.38;10.98;;;22.60;36.90;;;;;;6111826;28;84321;-61
2023/03/17 02:31:59;;;;;;;20.90;10.20;;;22.60;36.80;;;;;;6174054;28;83433;-60
2023/03/17 02:35:00;;;;;;;18.15;10.93;;;22.60;37.00;;;;;;6099987;28;83529;-60
2023/03/17 02:38:01;;;;;;;18.35;10.32;;;22.60;37.00;;;;;;6100414;28;82806;-61
2023/03/17 02:41:03;;;;;;;19.45;10.88;;;22.60;36.90;;;;;;6099742;28;83971;-60
2023/03/17 02:44:03;;;;;;;18.35;10.27;;;22.60;36.90;;;;;;6098643;28;83634;-60
2023/03/17 02:47:05;;;;;;;17.90;10.73;;;22.60;36.90;;;;;;6096909;28;85742;-59
2023/03/17 02:50:05;;;;;;;18.65;10.90;;;22.60;37.00;;;;;;6100438;28;83868;-59
2023/03/17 02:53:07;;;;;;;20.50;10.32;;;22.60;36.80;;;;;;6098528;28;83167;-59
2023/03/17 02:56:08;;;;;;;18.48;10.88;;;22.60;37.00;;;;;;6098930;28;83157;-59
2023/03/17 02:59:08;;;;;;;16.23;10.00;;;22.50;36.90;;;;;;6091299;28;88582;-59
2023/03/17 03:02:09;;;;;;;19.25;10.45;;;22.50;36.80;;;;;;6098755;28;85321;-61
2023/03/17 03:05:09;;;;;;;17.92;10.98;;;22.50;36.80;;;;;;6099217;28;82953;-61
2023/03/17 03:08:10;;;;;;;16.92;10.80;;;22.50;36.90;;;;;;6099478;28;83434;-60
2023/03/17 03:11:10;;;;;;;21.65;11.52;;;22.50;36.60;;;;;;6099116;28;83549;-59
2023/03/17 03:14:11;;;;;;;18.40;11.20;;;22.50;36.70;;;;;;6097888;28;83026;-59
2023/03/17 03:17:12;;;;;;;18.30;10.52;;;22.50;36.70;;;;;;6096815;28;84155;-64
2023/03/17 03:20:13;;;;;;;20.40;11.13;;;22.60;36.70;;;;;;6088166;28;83588;-67
2023/03/17 03:23:13;;;;;;;19.35;11.30;;;22.50;36.60;;;;;;6098405;28;83964;-69
2023/03/17 03:26:14;;;;;;;19.40;10.95;;;22.60;36.70;;;;;;6098853;28;83008;-68
2023/03/17 03:29:15;;;;;;;21.85;11.77;;;22.50;36.70;;;;;;6098808;28;84074;-67
2023/03/17 03:32:16;;;;;;;19.95;11.55;;;22.60;36.80;;;;;;6098602;28;82885;-66
2023/03/17 03:35:16;;;;;;;18.25;11.00;;;22.60;36.80;;;;;;6097956;28;83293;-70
2023/03/17 03:38:17;;;;;;;19.50;11.38;;;22.50;36.60;;;;;;6096747;28;84801;-71
2023/03/17 03:41:17;;;;;;;21.02;11.60;;;22.60;36.80;;;;;;6119730;28;83376;-72
2023/03/17 03:44:18;;;;;;;15.70;10.82;;;22.60;36.60;;;;;;6164919;28;83083;-71
2023/03/17 03:47:18;;;;;;;16.83;11.05;;;22.60;37.10;;;;;;6098896;28;83027;-70
2023/03/17 03:50:19;;;;;;;19.42;10.68;;;22.60;36.40;;;;;;6099675;28;83097;-71
2023/03/17 03:53:19;;;;;;;19.83;11.55;;;22.50;36.40;;;;;;6100610;28;83639;-73
2023/03/17 03:56:20;;;;;;;23.00;12.20;;;22.60;36.40;;;;;;6098074;28;83537;-74
2023/03/17 03:59:21;;;;;;;21.67;11.63;;;22.50;36.20;;;;;;6096855;28;84346;-72
2023/03/17 04:02:21;;;;;;;19.90;11.25;;;22.50;36.20;;;;;;6096686;28;83522;-72
2023/03/17 04:05:22;;;;;;;17.52;10.85;;;22.50;36.00;;;;;;6097444;28;83723;-69
2023/03/17 04:08:22;;;;;;;23.25;11.00;;;22.50;36.00;;;;;;6096877;28;82953;-70
2023/03/17 04:11:23;;;;;;;22.10;12.07;;;22.50;35.90;;;;;;6099065;28;82908;-73
2023/03/17 04:14:23;;;;;;;19.95;11.77;;;22.50;35.90;;;;;;6125127;28;84324;-74
2023/03/17 04:17:24;;;;;;;22.77;12.60;;;22.50;36.00;;;;;;6173116;28;84515;-72
2023/03/17 04:20:24;;;;;;;20.48;11.80;;;22.50;35.60;;;;;;6120537;28;83927;-72
2023/03/17 04:23:25;;;;;;;24.25;13.75;;;22.60;35.30;;;;;;6170450;28;83292;-69
2023/03/17 04:26:25;;;;;;;22.25;12.82;;;22.70;35.30;;;;;;6098277;28;83299;-68
2023/03/17 04:29:26;;;;;;;25.75;14.50;;;22.70;35.10;;;;;;6097540;28;83308;-68
2023/03/17 04:32:26;;;;;;;23.08;13.88;;;22.80;34.90;;;;;;6097093;28;86276;-71
2023/03/17 04:35:27;;;;;;;30.55;15.23;;;22.80;34.70;;;;;;6096677;28;83186;-72
2023/03/17 04:38:27;;;;;;;28.00;15.90;;;22.90;34.50;;;;;;6126817;28;84254;-68
2023/03/17 04:41:28;;;;;;;28.67;15.48;;;22.90;34.50;;;;;;6163050;28;83135;-69
2023/03/17 04:44:28;;;;;;;25.80;15.70;;;23.00;34.40;;;;;;6097530;28;83802;-68
2023/03/17 04:47:29;;;;;;;29.10;15.57;;;23.00;34.30;;;;;;6089354;28;82992;-71
2023/03/17 04:50:31;;;;;;;29.83;16.88;;;23.10;34.10;;;;;;6096270;28;83043;-66
2023/03/17 04:53:32;;;;;;;30.67;17.33;;;23.00;34.30;;;;;;6096978;28;85999;-68
2023/03/17 04:56:32;;;;;;;27.08;15.82;;;23.10;34.30;;;;;;6097019;28;83120;-73
2023/03/17 04:59:33;;;;;;;30.60;16.83;;;23.10;34.60;;;;;;6097579;28;82994;-63
2023/03/17 05:02:34;;;;;;;33.38;18.40;;;23.10;34.20;;;;;;6097544;28;84326;-64
2023/03/17 05:05:34;;;;;;;28.95;16.52;;;23.10;34.00;;;;;;6098338;28;82906;-62
2023/03/17 05:08:35;;;;;;;30.63;17.98;;;23.20;33.70;;;;;;6097898;28;82860;-68
2023/03/17 05:11:35;;;;;;;32.15;19.48;;;23.20;33.30;;;;;;6090810;28;85360;-65
2023/03/17 05:14:36;;;;;;;32.08;18.27;;;23.20;33.20;;;;;;6093043;28;83216;-61
2023/03/17 05:17:37;;;;;;;31.25;17.95;;;23.20;33.10;;;;;;6093985;28;82841;-60
2023/03/17 05:20:37;;;;;;;32.95;18.63;;;23.20;33.00;;;;;;6090983;28;83035;-61
2023/03/17 05:23:39;;;;;;;33.63;18.63;;;23.30;33.60;;;;;;6089996;28;83175;-61
2023/03/17 05:26:39;;;;;;;32.08;18.88;;;23.30;33.60;;;;;;6094965;28;84984;-67
2023/03/17 05:29:40;;;;;;;35.35;19.48;;;23.30;33.50;;;;;;6093573;28;84345;-71
2023/03/17 05:32:40;;;;;;;37.45;19.52;;;23.30;33.30;;;;;;6087689;28;83510;-72
2023/03/17 05:35:41;;;;;;;35.75;19.30;;;23.30;33.30;;;;;;6091918;28;85530;-66
2023/03/17 05:38:41;;;;;;;35.88;18.88;;;23.30;33.50;;;;;;6094501;28;83200;-59
2023/03/17 05:41:42;;;;;;;32.28;18.88;;;23.30;33.20;;;;;;6093684;28;83232;-59
2023/03/17 05:44:43;;;;;;;31.55;19.10;;;23.30;33.10;;;;;;6092116;28;83381;-62
2023/03/17 05:47:44;;;;;;;35.58;19.30;;;23.30;32.80;;;;;;6087592;28;87099;-68
2023/03/17 05:50:45;;;;;;;39.17;19.88;;;23.30;32.80;;;;;;6091271;28;82913;-63
2023/03/17 05:53:45;;;;;;;36.22;18.80;;;23.40;33.30;;;;;;6094234;28;85517;-69
2023/03/17 05:56:46;;;;;;;31.85;17.30;;;23.40;33.20;;;;;;6093931;28;83388;-70
2023/03/17 05:59:46;;;;;;;34.30;18.25;;;23.40;33.30;;;;;;6090614;28;86523;-71
2023/03/17 06:02:47;;;;;;;32.70;19.00;;;23.40;33.20;;;;;;6090865;28;84113;-66
2023/03/17 06:05:47;;;;;;;35.05;18.88;;;23.30;33.10;;;;;;6099211;28;84066;-66
2023/03/17 06:08:48;;;;;;;38.08;18.55;;;23.30;33.10;;;;;;6091422;28;83254;-66
2023/03/17 06:11:48;;;;;;;31.38;18.77;;;23.30;33.50;;;;;;6089961;28;83407;-66
2023/03/17 06:14:49;;;;;;;31.35;18.33;;;23.20;33.30;;;;;;6092321;28;83914;-66
2023/03/17 06:17:50;;;;;;;28.95;17.55;;;23.20;33.20;;;;;;6093223;28;84194;-65
2023/03/17 06:20:51;;;;;;;34.50;19.35;;;23.20;33.10;;;;;;6068883;28;91738;-71
2023/03/17 06:23:51;;;;;;;38.65;19.05;;;23.20;33.10;;;;;;6077937;28;86331;-73
2023/03/17 06:26:52;;;;;;;27.58;17.83;;;23.20;33.30;;;;;;6065859;28;90503;-73
2023/03/17 06:29:52;;;;;;;28.63;17.38;;;23.20;33.20;;;;;;6027584;28;83915;-72
2023/03/17 06:32:53;;;;;;;33.38;19.02;;;23.20;33.30;;;;;;6071172;28;86307;-73
2023/03/17 06:35:54;;;;;;;31.58;17.17;;;23.20;33.30;;;;;;6095138;28;89685;-73
2023/03/17 06:38:54;;;;;;;32.47;18.45;;;23.10;33.40;;;;;;6098641;28;84871;-70
2023/03/17 06:41:55;;;;;;;32.00;18.75;;;23.10;33.20;;;;;;6096829;28;83753;-72
2023/03/17 06:44:55;;;;;;;31.63;18.42;;;23.10;33.00;;;;;;6112541;28;88125;-72
2023/03/17 06:47:56;;;;;;;29.45;17.30;;;23.10;33.20;;;;;;6090292;28;86942;-71
2023/03/17 06:50:56;;;;;;;32.22;17.35;;;23.10;33.20;;;;;;6108914;28;87117;-71
2023/03/17 06:53:57;;;;;;;27.15;15.65;;;23.10;33.00;;;;;;6100903;28;85466;-70
2023/03/17 06:56:57;;;;;;;26.25;15.45;;;23.10;33.40;;;;;;6097138;28;83337;-65
2023/03/17 06:59:58;;;;;;;34.65;18.15;;;23.10;33.40;;;;;;6128414;28;86816;-68
2023/03/17 07:02:59;;;;;;;33.00;17.90;;;23.10;33.60;;;;;;6139131;28;84234;-69
2023/03/17 07:05:59;;;;;;;28.65;16.80;;;23.10;33.10;;;;;;6092835;28;83187;-70
2023/03/17 07:09:01;;;;;;;29.70;17.27;;;23.10;33.10;;;;;;6096483;28;83065;-71
2023/03/17 07:12:03;;;;;;;32.67;16.95;;;23.10;33.10;;;;;;6094804;28;83232;-71
2023/03/17 07:15:04;;;;;;;26.52;16.35;;;23.10;33.60;;;;;;6090901;28;84438;-73
2023/03/17 07:18:05;;;;;;;31.30;15.85;;;23.00;32.90;;;;;;6097942;28;87824;-71
2023/03/17 07:21:06;;;;;;;31.60;16.73;;;23.00;32.80;;;;;;6091462;28;82996;-71
2023/03/17 07:24:07;;;;;;;28.02;15.70;;;23.00;32.80;;;;;;6088044;28;87989;-72
2023/03/17 07:27:07;;;;;;;28.27;16.88;;;23.00;33.00;;;;;;6096345;28;84089;-73
2023/03/17 07:30:08;;;;;;;27.40;16.02;;;23.00;32.90;;;;;;6096969;28;84833;-73
2023/03/17 07:33:09;;;;;;;32.33;17.52;;;23.00;33.00;;;;;;6091557;28;87276;-70
2023/03/17 07:36:10;;;;;;;28.60;16.27;;;23.10;33.00;;;;;;6140301;28;83425;-62
2023/03/17 07:39:10;;;;;;;27.58;15.68;;;23.10;32.90;;;;;;6094417;28;86304;-62
2023/03/17 07:42:11;;;;;;;24.92;14.98;;;23.10;33.00;;;;;;6092344;28;86170;-62
2023/03/17 07:45:11;;;;;;;24.10;14.88;;;23.10;33.10;;;;;;6085576;28;83075;-61
2023/03/17 07:48:12;;;;;;;27.60;14.60;;;23.10;33.30;;;;;;6092220;28;82910;-63
2023/03/17 07:51:12;;;;;;;32.03;14.95;;;23.10;33.10;;;;;;6090056;28;85031;-63
2023/03/17 07:54:13;;;;;;;23.63;13.50;;;23.10;33.20;;;;;;6090700;28;84032;-74
2023/03/17 07:57:15;;;;;;;23.38;13.98;;;23.10;33.10;;;;;;6096820;28;83671;-72
2023/03/17 08:00:16;;;;;;;24.40;13.15;;;23.10;33.10;;;;;;6097373;28;85268;-73
2023/03/17 08:03:17;;;;;;;29.35;15.00;;;23.10;33.00;;;;;;6098516;28;83505;-72
2023/03/17 08:06:18;;;;;;;23.88;12.25;;;23.10;33.00;;;;;;6096260;28;83758;-70
2023/03/17 08:09:19;;;;;;;21.70;13.15;;;23.20;33.00;;;;;;6086592;28;84103;-68
2023/03/17 08:12:20;;;;;;;19.30;11.45;;;23.20;33.10;;;;;;6092043;28;83757;-62
2023/03/17 08:15:21;;;;;;;16.65;10.40;;;23.20;33.90;;;;;;6086705;28;82834;-62
2023/03/17 08:18:21;;;;;;;16.58;10.30;;;23.20;33.00;;;;;;6087249;28;83319;-61
2023/03/17 08:21:22;;;;;;;18.98;9.98;;;23.20;33.30;;;;;;6094141;28;85354;-62
2023/03/17 08:24:22;;;;;;;14.57;8.52;;;23.30;33.40;;;;;;6096581;28;85636;-62
2023/03/17 08:27:23;;;;;;;17.67;9.50;;;23.30;33.40;;;;;;6099071;28;83388;-61
2023/03/17 08:30:24;;;;;;;14.95;7.72;;;23.30;33.40;;;;;;6088325;28;85634;-68
2023/03/17 08:33:24;;;;;;;12.43;7.63;;;23.30;33.40;;;;;;6057271;27;82270;-68
2023/03/17 08:36:25;;;;;;;13.00;7.47;;;23.30;33.40;;;;;;6057582;28;80833;-67
2023/03/17 08:39:25;;;;;;;12.13;7.07;;;23.40;33.30;;;;;;6092168;28;80546;-68
2023/03/17 08:42:26;;;;;;;13.00;6.63;;;23.30;33.20;;;;;;6095059;28;80710;-67
2023/03/17 08:45:26;;;;;;;13.18;7.25;;;23.40;33.00;;;;;;6070943;28;86203;-65
2023/03/17 08:48:27;;;;;;;12.60;7.05;;;23.40;33.00;;;;;;6084148;28;84602;-60
2023/03/17 08:51:27;;;;;;;9.75;6.32;;;23.40;32.90;;;;;;6094925;28;80836;-61
2023/03/17 08:54:28;;;;;;;10.75;6.43;;;23.40;32.70;;;;;;6093973;28;81240;-60
2023/03/17 08:57:28;;;;;;;10.48;5.85;;;23.40;32.80;;;;;;6097343;28;82367;-60
2023/03/17 09:00:29;;;;;;;10.68;5.60;;;23.50;32.70;;;;;;6192581;28;81740;-60
2023/03/17 09:03:30;;;;;;;9.20;5.70;;;23.50;32.50;;;;;;6191133;28;80963;-60
2023/03/17 09:06:31;;;;;;;9.25;5.72;;;23.50;32.60;;;;;;6183586;28;80782;-59
2023/03/17 09:09:32;;;;;;;8.82;5.50;;;23.40;31.60;;;;;;6063280;28;83251;-59
2023/03/17 09:12:33;;;;;;;8.13;4.93;;;23.30;30.40;;;;;;6072422;28;81063;-59
2023/03/17 09:15:33;;;;;;;8.45;4.45;;;22.80;28.20;;;;;;6072388;28;83800;-59
2023/03/17 09:18:34;;;;;;;6.43;4.32;;;22.20;27.40;;;;;;6071323;28;81240;-59
2023/03/17 09:21:35;;;;;;;8.02;4.40;;;22.10;28.40;;;;;;6078312;28;81366;-60
2023/03/17 09:24:36;;;;;;;7.60;4.25;;;21.70;26.60;;;;;;6076397;28;83990;-63
2023/03/17 09:27:36;;;;;;;8.15;4.20;;;21.40;27.60;;;;;;6074700;28;81740;-64
2023/03/17 09:30:37;;;;;;;7.22;4.20;;;21.60;26.90;;;;;;6077054;28;88099;-64
2023/03/17 09:33:37;;;;;;;5.82;4.00;;;21.70;26.70;;;;;;6079262;28;81666;-64
2023/03/17 09:36:38;;;;;;;8.70;3.80;;;21.70;26.90;;;;;;6062079;28;83893;-63
2023/03/17 09:39:38;;;;;;;7.07;3.75;;;21.50;26.10;;;;;;6061620;28;82519;-63
2023/03/17 09:42:39;;;;;;;7.65;3.88;;;21.10;26.00;;;;;;6074659;28;84103;-62
2023/03/17 09:45:40;;;;;;;9.43;4.85;;;20.40;25.80;;;;;;6074947;28;81435;-63
2023/03/17 09:48:40;;;;;;;6.40;3.60;;;20.70;26.70;;;;;;6072394;28;80808;-61
2023/03/17 09:51:41;;;;;;;7.47;3.90;;;20.70;26.80;;;;;;6078198;28;81337;-63
2023/03/17 09:54:42;;;;;;;7.10;3.35;;;21.10;26.80;;;;;;6068820;28;81771;-64
2023/03/17 09:57:42;;;;;;;7.40;4.05;;;21.30;27.20;;;;;;6089051;28;82321;-64
2023/03/17 10:00:43;;;;;;;5.18;3.83;;;21.20;27.00;;;;;;6090112;28;81308;-64
2023/03/17 10:03:44;;;;;;;6.25;3.70;;;21.30;26.60;;;;;;6094913;28;80924;-63
2023/03/17 10:06:45;;;;;;;8.55;4.13;;;21.50;26.70;;;;;;6088372;28;85575;-63
2023/03/17 10:09:46;;;;;;;8.88;4.80;;;21.20;26.90;;;;;;6094306;28;80682;-62
2023/03/17 10:12:46;;;;;;;6.68;4.03;;;20.70;25.70;;;;;;6092716;28;80783;-61
2023/03/17 10:15:47;;;;;;;8.90;4.05;;;20.40;26.40;;;;;;6093892;28;82618;-61
2023/03/17 10:18:47;;;;;;;8.25;4.00;;;20.90;27.20;;;;;;6100480;27;80946;-62
2023/03/17 10:21:48;;;;;;;10.77;4.95;;;21.20;27.60;;;;;;6099448;28;81979;-62
2023/03/17 10:24:49;;;;;;;8.52;4.60;;;21.50;27.20;;;;;;6098902;28;81100;-62
2023/03/17 10:27:49;;;;;;;9.02;4.38;;;21.70;27.20;;;;;;6098373;28;85935;-62
2023/03/17 10:30:51;;;;;;;9.00;4.70;;;21.70;27.00;;;;;;6097700;28;80835;-62
2023/03/17 10:33:52;;;;;;;5.78;3.78;;;21.80;27.10;;;;;;6089455;28;83408;-63
2023/03/17 10:36:52;;;;;;;9.07;4.55;;;21.90;27.30;;;;;;6099466;28;81979;-62
2023/03/17 10:39:53;;;;;;;9.75;5.07;;;22.10;27.10;;;;;;6092846;28;80454;-61
2023/03/17 10:42:53;;;;;;;6.05;4.03;;;22.10;27.10;;;;;;6096616;28;84545;-60
2023/03/17 10:45:54;;;;;;;14.23;4.45;;;21.20;26.00;;;;;;6106789;28;80875;-60
2023/03/17 10:48:55;;;;;;;7.75;4.43;;;21.40;27.10;;;;;;6189177;28;81164;-59
2023/03/17 10:51:55;;;;;;;8.18;4.72;;;21.70;26.20;;;;;;6101455;28;80410;-58
2023/03/17 10:54:56;;;;;;;8.20;4.15;;;20.90;25.50;;;;;;6102898;28;80992;-59
2023/03/17 10:57:57;;;;;;;6.50;3.58;;;20.70;25.70;;;;;;6102015;28;82862;-61
2023/03/17 11:00:58;;;;;;;7.53;4.28;;;21.00;26.00;;;;;;6102964;28;80382;-62
2023/03/17 11:04:01;;;;;;;11.77;4.18;;;20.90;25.30;;;;;;6103031;28;80744;-64
2023/03/17 11:07:01;;;;;;;8.43;4.35;;;20.80;26.30;;;;;;6091647;28;80513;-61
2023/03/17 11:10:02;;;;;;;6.15;3.50;;;21.30;26.50;;;;;;6102811;28;80490;-62
2023/03/17 11:13:02;;;;;;;5.78;3.33;;;21.50;25.80;;;;;;6102466;28;81784;-62
2023/03/17 11:16:03;;;;;;;7.47;3.55;;;21.40;25.50;;;;;;6103153;28;80699;-68
2023/03/17 11:19:04;;;;;;;7.18;4.03;;;21.70;25.70;;;;;;6102239;28;80596;-69
2023/03/17 11:22:05;;;;;;;8.35;3.85;;;21.70;25.20;;;;;;6102810;28;81370;-70
2023/03/17 11:25:05;;;;;;;7.80;4.15;;;21.70;25.30;;;;;;6102245;28;80356;-71
2023/03/17 11:28:06;;;;;;;8.45;4.00;;;21.30;25.70;;;;;;6099538;28;80393;-69
2023/03/17 11:31:08;;;;;;;7.00;3.83;;;21.70;25.90;;;;;;6152725;28;81510;-68
2023/03/17 11:34:08;;;;;;;7.90;3.67;;;22.00;26.00;;;;;;6101875;28;81175;-71
2023/03/17 11:37:09;;;;;;;6.65;4.15;;;22.10;26.00;;;;;;6102229;28;80210;-70
2023/03/17 11:40:10;;;;;;;5.82;3.60;;;22.40;26.20;;;;;;6101543;28;81862;-70
2023/03/17 11:43:10;;;;;;;7.35;4.13;;;22.50;26.40;;;;;;6101702;28;81953;-70
2023/03/17 11:46:11;;;;;;;9.18;4.07;;;22.60;26.20;;;;;;6101377;28;80631;-69
2023/03/17 11:49:11;;;;;;;9.05;4.65;;;22.50;26.00;;;;;;6089759;28;80906;-70
2023/03/17 11:52:12;;;;;;;10.07;5.32;;;22.60;25.90;;;;;;6095476;28;80880;-73
2023/03/17 11:55:12;;;;;;;11.20;4.45;;;22.50;25.30;;;;;;6097847;28;80500;-76
2023/03/17 11:58:14;;;;;;;8.60;4.22;;;21.90;25.70;;;;;;6096912;28;80928;-75
2023/03/17 12:01:14;;;;;;;10.82;4.72;;;22.20;26.30;;;;;;6102041;28;80359;-74
2023/03/17 12:04:15;;;;;;;6.43;3.53;;;22.50;26.40;;;;;;6100526;28;80436;-73
2023/03/17 12:07:15;;;;;;;8.65;4.75;;;22.60;26.40;;;;;;6105685;28;80449;-73
2023/03/17 12:10:16;;;;;;;6.15;3.72;;;22.60;26.10;;;;;;6103520;28;80339;-73
2023/03/17 12:13:17;;;;;;;8.20;4.78;;;22.70;26.30;;;;;;6097933;28;84057;-69
2023/03/17 12:16:18;;;;;;;6.28;4.05;;;22.80;26.00;;;;;;6092827;28;83365;-74
2023/03/17 12:19:19;;;;;;;10.30;4.00;;;22.90;26.50;;;;;;6086269;28;80812;-78
2023/03/17 12:22:21;;;;;;;7.80;3.83;;;22.90;26.40;;;;;;6099711;28;80234;-71
2023/03/17 12:25:23;;;;;;;9.80;4.47;;;22.90;26.30;;;;;;6127203;28;83122;-68
2023/03/17 12:28:24;;;;;;;7.07;4.28;;;22.80;26.00;;;;;;6156029;28;81697;-75
2023/03/17 12:31:25;;;;;;;8.70;4.40;;;22.90;26.30;;;;;;6016939;28;82088;-74
2023/03/17 12:34:25;;;;;;;8.98;4.43;;;23.00;26.20;;;;;;6099730;28;84853;-78
2023/03/17 12:37:26;;;;;;;10.68;4.70;;;23.10;26.40;;;;;;6099736;28;80998;-74
2023/03/17 12:40:27;;;;;;;9.57;4.60;;;23.00;26.50;;;;;;6098990;28;80388;-73
2023/03/17 12:43:27;;;;;;;10.98;4.72;;;23.00;26.60;;;;;;6095945;28;84667;-76
2023/03/17 12:46:28;;;;;;;9.38;4.43;;;23.10;26.60;;;;;;6101958;28;81698;-72
2023/03/17 12:49:29;;;;;;;10.55;4.20;;;23.20;26.70;;;;;;6112790;28;80273;-77
2023/03/17 12:52:29;;;;;;;9.18;4.57;;;23.20;26.80;;;;;;6128071;28;80046;-73
2023/03/17 12:55:30;;;;;;;7.55;4.15;;;23.10;26.60;;;;;;6127619;28;81883;-73
2023/03/17 12:58:31;;;;;;;7.30;4.68;;;23.20;26.60;;;;;;6157489;28;81010;-72
2023/03/17 13:01:31;;;;;;;8.82;4.63;;;23.20;26.50;;;;;;6206031;28;81017;-75
2023/03/17 13:04:34;;;;;;;10.10;4.82;;;23.20;26.60;;;;;;6181525;28;86620;-74
2023/03/17 13:07:35;;;;;;;8.68;5.05;;;23.30;26.40;;;;;;6098242;28;81231;-74
2023/03/17 13:10:39;;;;;;;8.75;4.25;;;23.30;26.50;;;;;;6122383;28;82786;-76
2023/03/17 13:13:40;;;;;;;9.80;4.53;;;23.30;26.40;;;;;;6191490;28;82797;-75
2023/03/17 13:16:40;;;;;;;9.10;5.07;;;23.30;26.60;;;;;;6163148;28;80699;-74
2023/03/17 13:19:41;;;;;;;8.88;4.55;;;23.30;26.50;;;;;;6096606;28;81540;-73
2023/03/17 13:22:41;;;;;;;6.72;4.18;;;23.30;26.60;;;;;;6095981;28;85727;-77
2023/03/17 13:25:44;;;;;;;8.30;4.20;;;23.30;26.60;;;;;;6102630;28;81237;-72
2023/03/17 13:28:46;;;;;;;11.82;4.32;;;23.40;26.50;;;;;;6108836;28;85446;-72
2023/03/17 13:31:46;;;;;;;8.23;4.47;;;23.40;26.50;;;;;;6095876;28;81318;-72
2023/03/17 13:34:47;;;;;;;9.45;4.35;;;23.40;26.50;;;;;;6095235;28;80424;-74
2023/03/17 13:37:47;;;;;;;7.82;3.83;;;23.40;26.40;;;;;;6104870;28;81450;-75
2023/03/17 13:40:48;;;;;;;10.15;4.82;;;23.30;26.20;;;;;;6099806;28;80944;-74
2023/03/17 13:43:48;;;;;;;6.63;3.83;;;23.30;26.40;;;;;;6097283;28;83346;-73
2023/03/17 13:46:50;;;;;;;11.00;4.60;;;23.30;26.30;;;;;;6097149;28;80877;-72
2023/03/17 13:49:51;;;;;;;10.00;4.32;;;23.30;26.30;;;;;;6098996;28;81901;-75
2023/03/17 13:52:51;;;;;;;8.57;4.63;;;23.30;26.30;;;;;;6093403;28;83735;-74
2023/03/17 13:55:52;;;;;;;11.63;4.68;;;23.30;26.30;;;;;;6098265;28;85556;-72
2023/03/17 13:58:52;;;;;;;5.13;3.53;;;23.20;26.20;;;;;;6092586;28;86399;-64
2023/03/17 14:01:53;;;;;;;9.50;4.78;;;23.20;26.30;;;;;;6086887;28;80474;-59
2023/03/17 14:04:53;;;;;;;10.52;4.82;;;23.20;26.30;;;;;;6106200;28;83242;-61
2023/03/17 14:07:54;;;;;;;10.18;4.03;;;23.20;26.70;;;;;;6089644;28;85727;-62
2023/03/17 14:10:55;;;;;;;8.52;4.95;;;23.20;26.50;;;;;;6094527;28;86985;-62
2023/03/17 14:13:56;;;;;;;10.13;4.47;;;23.30;26.60;;;;;;6098820;28;80822;-60
2023/03/17 14:16:56;;;;;;;10.95;4.10;;;23.20;26.80;;;;;;6100020;28;80572;-60
2023/03/17 14:19:57;;;;;;;15.88;5.35;;;23.20;26.80;;;;;;6098806;28;80389;-69
2023/03/17 14:22:57;;;;;;;13.70;6.53;;;23.20;27.30;;;;;;6098704;28;85506;-66
2023/03/17 14:25:58;;;;;;;14.20;5.68;;;23.20;27.70;;;;;;6098614;28;85743;-66
2023/03/17 14:28:59;;;;;;;16.33;6.57;;;23.20;27.90;;;;;;6099922;28;85656;-68
2023/03/17 14:32:00;;;;;;;16.70;6.07;;;23.20;28.20;;;;;;6100390;28;80777;-69
2023/03/17 14:35:01;;;;;;;15.18;5.63;;;23.30;28.20;;;;;;6097074;28;80636;-68
2023/03/17 14:38:03;;;;;;;9.48;5.00;;;23.30;28.50;;;;;;6094055;28;80659;-61
2023/03/17 14:41:03;;;;;;;13.45;5.05;;;23.30;28.10;;;;;;6097084;28;82611;-60
2023/03/17 14:44:04;;;;;;;14.45;5.00;;;23.30;28.00;;;;;;6098413;28;84879;-60
2023/03/17 14:47:04;;;;;;;9.23;4.22;;;23.30;28.10;;;;;;6092143;27;82899;-59
2023/03/17 14:50:05;;;;;;;9.88;4.38;;;23.30;28.00;;;;;;6097739;28;81881;-60
2023/03/17 14:53:06;;;;;;;9.75;4.70;;;23.30;28.00;;;;;;6099735;28;80658;-61
2023/03/17 14:56:06;;;;;;;8.98;4.20;;;23.30;27.90;;;;;;6095175;28;81730;-65
2023/03/17 14:59:07;;;;;;;7.82;3.53;;;23.30;28.00;;;;;;6100868;28;81555;-63
2023/03/17 15:02:07;;;;;;;9.45;4.05;;;23.30;27.70;;;;;;6094815;28;83841;-67
2023/03/17 15:05:08;;;;;;;11.50;4.25;;;23.30;27.30;;;;;;6095123;28;85174;-72
2023/03/17 15:08:09;;;;;;;7.32;4.00;;;23.20;27.10;;;;;;6100358;28;80380;-69
2023/03/17 15:11:09;;;;;;;11.32;3.92;;;23.20;27.30;;;;;;6098876;27;81066;-68
2023/03/17 15:14:10;;;;;;;11.88;4.68;;;23.20;27.20;;;;;;6099517;28;80906;-65
2023/03/17 15:17:10;;;;;;;8.00;3.83;;;23.20;27.30;;;;;;6099855;28;80487;-61
2023/03/17 15:20:11;;;;;;;6.93;3.53;;;23.20;27.20;;;;;;6096994;28;80976;-66
2023/03/17 15:23:11;;;;;;;10.30;4.20;;;23.20;27.40;;;;;;6099511;28;80706;-74
2023/03/17 15:26:12;;;;;;;11.15;3.45;;;23.20;27.70;;;;;;6100604;28;81632;-74